Austin, TX

2:24 PM CDT op 26 april 2015 (GMT -0500)
Austin | | Change Station
CLOSE
Current Station
Luchthaven
Location: Austin,
Geometrische hoogte: 656 ft
Nabije weerstations

Hoogte 656 ft 30.32 °N, 97.76 °W | Updated 33 minutes ago

Merendeels bewolkt
Merendeels bewolkt
84 °F
Voelt als 88 °F
N
9
Wind Variabel Wind van ZZO
Gusts 18 mijl/u

Vandaag
Hoog -- | Laag -- °F
--% Kans op neerslag
Gisteren
Hoog -- | Laag -- °F
Precip. -- inches
6:52 AM 8:05 PM
Eerste kwartier, 58% visible
Druk 29.64 inches
Zicht 10.0 mijlen
Wolken Merendeels bewolkt 11000 ft
Warmteindex 88 °F
Dauwpunt 70 °F
Vochtigheid 63%
Neerslag 0.08 inches
Dikte sneeuw Niet beschikbaar.
UV 6 van de 12
Pollen 8.20 van de 12
Luchtkwaliteit Niet beschikbaar.
Flu Activity Local Activity
METAR KATT 261851Z AUTO 15008G16KT 120V180 10SM BKN110 29/21 A2967 RMK AO2 SLP036 T02890211 $

More Conditions Fewer Conditions

Druk 29.64 inches
Zicht 10.0 mijlen
Wolken Merendeels bewolkt 11000 ft
Warmteindex 88 °F
Dauwpunt 70 °F
Vochtigheid 63%
Neerslag 0.08 inches
Dikte sneeuw Niet beschikbaar.
UV 6 van de 12
Pollen 8.20 van de 12
Luchtkwaliteit Niet beschikbaar.
Flu Activity Local Activity
METAR KATT 261851Z AUTO 15008G16KT 120V180 10SM BKN110 29/21 A2967 RMK AO2 SLP036 T02890211 $

More Conditions Fewer Conditions

The full scope of the disaster following a powerful 7.8-magnitude earthquake in Nepal may not come into view for days, but global charities are already sending emergency aid. Click to see how you can help.

10-Day Weather Forecast

Almanac

Astronomie

Apr. 26, 2015 Opkomst Ondergang
Werkelijke tijd
Burgerlijke schemering
Nautische schemering
Astronomische schemering
Maan
Golflengte van het zichtbare licht
Daglengte
Tomorrow will be .
, % of the Moon is Illuminated

Extremen vandaag

State Highs State Lows

Community

WunderPhotos

Upload Photos

1,817,097 foto’s ge-upload!

WunderBlogs® & News

Nearby

Luchtkwaliteit

  Luchtkwaliteit LK-index Verontreinigende stof
Not available.

Dikte sneeuw

Station Depth Geometrische hoogte

Aardbevingen

Stad Distance Mag. Time & Date
Minimum magnitude displayed is 2.5.

Watertemperatuur langs de kust

Plaats Temperatuur

Stations

Nabije weerstations

Locatie station Temp. Gevoelstemperatuur Dauwpunt Vochtigheid Wind Precip. Hoogte Geactualiseerd Type